Gwendolyn Grace — WDA9775 — position and weather

sailwx.info

Track history (hours):
 
Tides and Currents Weather Stations Pressure Air Temp Water Temp Dewpoint Dewpoint Depression Visibility Wind Speed Wind Dir Waves Ship Positions

Gwendolyn Grace

Owner: MARINE EXPRESS, ALAMEDA, CA. More information available from US FCC via Universal Licensing System and Coast Guard Vessel Documentation Center.

Last reported at 2018-Feb-22 22:09 UTC. Time now 2018-Feb-25 17:44 UTC.
Position N 37°47' W 122°17'.

Length 18 m; draft 6 m.

Type: Pilot. MMSI: 366868850.

Date/timePositionNaut miles runAvg speedWind from/ knotsBaromVisibWave heightAir tempDewpointWater temp
2018-Feb-22 22:09N 37°47' W 122°17'0 0.0
2018-Feb-22 22:00N 37°47' W 122°17'0 0.0
2018-Feb-22 21:30N 37°47' W 122°17'0 0.0
2018-Feb-22 21:01N 37°47' W 122°17'0 0.0
2018-Feb-21 02:03N 37°47' W 122°17'0 0.1
2018-Feb-21 02:00N 37°47' W 122°17'2 3.9
2018-Feb-21 01:30N 37°48' W 122°20'3 6.7
2018-Feb-21 01:00N 37°46' W 122°23'0 0.1
2018-Feb-21 00:30N 37°46' W 122°23'3 5.4
2018-Feb-21 00:00N 37°48' W 122°21'3 5.4
2018-Feb-20 23:30N 37°48' W 122°17'0 0.0
2018-Feb-19 22:23N 37°47' W 122°17'2 6.4
2018-Feb-19 22:00N 37°48' W 122°20'2 0.0
2018-Feb-17 22:43N 37°47' W 122°17'1 3.2
2018-Feb-17 22:30N 37°48' W 122°18'4 7.3
2018-Feb-17 22:00N 37°46' W 122°22'1 1.3
2018-Feb-17 21:30N 37°46' W 122°23'2 4.5
2018-Feb-17 21:00N 37°45' W 122°20'0 0.2
2018-Feb-17 20:30N 37°45' W 122°20'0 0.1
2018-Feb-17 20:00N 37°45' W 122°20'0 0.0
2018-Feb-17 19:30N 37°45' W 122°20'0 0.0
2018-Feb-17 19:00N 37°45' W 122°20'0 0.0
2018-Feb-17 18:30N 37°45' W 122°20'0 0.0
2018-Feb-17 18:00N 37°45' W 122°20'0 0.0
2018-Feb-17 17:30N 37°45' W 122°20'1 1.3
2018-Feb-17 17:00N 37°46' W 122°20'3 5.1
2018-Feb-17 16:30N 37°47' W 122°17'0 0.1
2018-Feb-17 16:00N 37°47' W 122°17'2 4.8
2018-Feb-17 15:31N 37°47' W 122°20'2 3.0
2018-Feb-17 15:00N 37°46' W 122°20'0 0.0
2018-Feb-17 14:30N 37°46' W 122°20'0 0.0
2018-Feb-17 14:00N 37°46' W 122°20'2 4.5
2018-Feb-17 13:30N 37°46' W 122°23'1 1.4
2018-Feb-17 13:00N 37°46' W 122°23'4 7.1
2018-Feb-17 12:30N 37°48' W 122°18'1 0.1
2018-Feb-17 03:16N 37°47' W 122°17'0 0.0
2018-Feb-17 03:01N 37°47' W 122°17'0 0.0
2018-Feb-17 02:31N 37°47' W 122°17'0 0.0
2018-Feb-17 02:00N 37°47' W 122°17'0 0.0
2018-Feb-17 01:30N 37°47' W 122°17'2 3.1
2018-Feb-17 01:00N 37°48' W 122°19'2 3.6
2018-Feb-17 00:30N 37°49' W 122°21'0 0.0
2018-Feb-17 00:01N 37°49' W 122°21'0 0.0
2018-Feb-16 23:30N 37°49' W 122°21'0 0.0
2018-Feb-16 23:00N 37°49' W 122°21'0 0.0
2018-Feb-16 22:30N 37°49' W 122°21'0 0.0
2018-Feb-16 22:01N 37°49' W 122°21'0 0.0
2018-Feb-16 21:30N 37°49' W 122°21'0 0.0
2018-Feb-16 21:01N 37°49' W 122°21'0 0.0
2018-Feb-16 20:31N 37°49' W 122°21'0 0.0
2018-Feb-16 20:00N 37°49' W 122°21'0 0.0
2018-Feb-16 19:31N 37°49' W 122°21'0 0.0
2018-Feb-16 19:01N 37°49' W 122°21'0 0.0
2018-Feb-16 18:31N 37°49' W 122°21'0 0.0
2018-Feb-16 18:00N 37°49' W 122°21'0 0.6
2018-Feb-16 17:31N 37°49' W 122°21'0 0.7
2018-Feb-16 17:00N 37°49' W 122°21'3 6.0
2018-Feb-16 16:31N 37°48' W 122°17'0 0.3
2018-Feb-16 16:00N 37°47' W 122°17'0 0.0
2018-Feb-16 15:30N 37°47' W 122°17'0 0.0
2018-Feb-16 15:00N 37°47' W 122°17'0 0.0
2018-Feb-16 14:29N 37°47' W 122°17'0 0.0
2018-Feb-16 14:00N 37°47' W 122°17'0 0.0
2018-Feb-16 13:30N 37°47' W 122°17'0 0.0
2018-Feb-16 13:01N 37°47' W 122°17'0 0.2
2018-Feb-16 12:31N 37°47' W 122°17'0 0.1
2018-Feb-16 12:00N 37°47' W 122°17'0 0.1
2018-Feb-16 11:30N 37°47' W 122°17'0 0.0
2018-Feb-15 01:24N 37°47' W 122°17'2 4.5
2018-Feb-15 01:00N 37°48' W 122°20'3 6.8
2018-Feb-15 00:30N 37°46' W 122°23'0 0.1
2018-Feb-15 00:00N 37°46' W 122°23'1 1.7
2018-Feb-14 23:30N 37°46' W 122°22'3 5.8
2018-Feb-14 23:00N 37°48' W 122°19'1 2.9
2018-Feb-14 22:30N 37°47' W 122°17'  
Track history (hours):
 
Tides and Currents Weather Stations Pressure Air Temp Water Temp Dewpoint Dewpoint Depression Visibility Wind Speed Wind Dir Waves Ship Positions

Gwendolyn Grace

Owner: MARINE EXPRESS, ALAMEDA, CA. More information available from US FCC via Universal Licensing System and Coast Guard Vessel Documentation Center.

Last reported at 2018-Feb-22 22:09 UTC. Time now 2018-Feb-25 17:44 UTC.
Position N 37°47' W 122°17'.

Length 18 m; draft 6 m.

Type: Pilot. MMSI: 366868850.

Date/timePositionNaut miles runAvg speedWind from/ knotsBaromVisibWave heightAir tempDewpointWater temp
2018-Feb-22 22:09N 37°47' W 122°17'0 0.0
2018-Feb-22 22:00N 37°47' W 122°17'0 0.0
2018-Feb-22 21:30N 37°47' W 122°17'0 0.0
2018-Feb-22 21:01N 37°47' W 122°17'0 0.0
2018-Feb-21 02:03N 37°47' W 122°17'0 0.1
2018-Feb-21 02:00N 37°47' W 122°17'2 3.9
2018-Feb-21 01:30N 37°48' W 122°20'3 6.7
2018-Feb-21 01:00N 37°46' W 122°23'0 0.1
2018-Feb-21 00:30N 37°46' W 122°23'3 5.4
2018-Feb-21 00:00N 37°48' W 122°21'3 5.4
2018-Feb-20 23:30N 37°48' W 122°17'0 0.0
2018-Feb-19 22:23N 37°47' W 122°17'2 6.4
2018-Feb-19 22:00N 37°48' W 122°20'2 0.0
2018-Feb-17 22:43N 37°47' W 122°17'1 3.2
2018-Feb-17 22:30N 37°48' W 122°18'4 7.3
2018-Feb-17 22:00N 37°46' W 122°22'1 1.3
2018-Feb-17 21:30N 37°46' W 122°23'2 4.5
2018-Feb-17 21:00N 37°45' W 122°20'0 0.2
2018-Feb-17 20:30N 37°45' W 122°20'0 0.1
2018-Feb-17 20:00N 37°45' W 122°20'0 0.0
2018-Feb-17 19:30N 37°45' W 122°20'0 0.0
2018-Feb-17 19:00N 37°45' W 122°20'0 0.0
2018-Feb-17 18:30N 37°45' W 122°20'0 0.0
2018-Feb-17 18:00N 37°45' W 122°20'0 0.0
2018-Feb-17 17:30N 37°45' W 122°20'1 1.3
2018-Feb-17 17:00N 37°46' W 122°20'3 5.1
2018-Feb-17 16:30N 37°47' W 122°17'0 0.1
2018-Feb-17 16:00N 37°47' W 122°17'2 4.8
2018-Feb-17 15:31N 37°47' W 122°20'2 3.0
2018-Feb-17 15:00N 37°46' W 122°20'0 0.0
2018-Feb-17 14:30N 37°46' W 122°20'0 0.0
2018-Feb-17 14:00N 37°46' W 122°20'2 4.5
2018-Feb-17 13:30N 37°46' W 122°23'1 1.4
2018-Feb-17 13:00N 37°46' W 122°23'4 7.1
2018-Feb-17 12:30N 37°48' W 122°18'1 0.1
2018-Feb-17 03:16N 37°47' W 122°17'0 0.0
2018-Feb-17 03:01N 37°47' W 122°17'0 0.0
2018-Feb-17 02:31N 37°47' W 122°17'0 0.0
2018-Feb-17 02:00N 37°47' W 122°17'0 0.0
2018-Feb-17 01:30N 37°47' W 122°17'2 3.1
2018-Feb-17 01:00N 37°48' W 122°19'2 3.6
2018-Feb-17 00:30N 37°49' W 122°21'0 0.0
2018-Feb-17 00:01N 37°49' W 122°21'0 0.0
2018-Feb-16 23:30N 37°49' W 122°21'0 0.0
2018-Feb-16 23:00N 37°49' W 122°21'0 0.0
2018-Feb-16 22:30N 37°49' W 122°21'0 0.0
2018-Feb-16 22:01N 37°49' W 122°21'0 0.0
2018-Feb-16 21:30N 37°49' W 122°21'0 0.0
2018-Feb-16 21:01N 37°49' W 122°21'0 0.0
2018-Feb-16 20:31N 37°49' W 122°21'0 0.0
2018-Feb-16 20:00N 37°49' W 122°21'0 0.0
2018-Feb-16 19:31N 37°49' W 122°21'0 0.0
2018-Feb-16 19:01N 37°49' W 122°21'0 0.0
2018-Feb-16 18:31N 37°49' W 122°21'0 0.0
2018-Feb-16 18:00N 37°49' W 122°21'0 0.6
2018-Feb-16 17:31N 37°49' W 122°21'0 0.7
2018-Feb-16 17:00N 37°49' W 122°21'3 6.0
2018-Feb-16 16:31N 37°48' W 122°17'0 0.3
2018-Feb-16 16:00N 37°47' W 122°17'0 0.0
2018-Feb-16 15:30N 37°47' W 122°17'0 0.0
2018-Feb-16 15:00N 37°47' W 122°17'0 0.0
2018-Feb-16 14:29N 37°47' W 122°17'0 0.0
2018-Feb-16 14:00N 37°47' W 122°17'0 0.0
2018-Feb-16 13:30N 37°47' W 122°17'0 0.0
2018-Feb-16 13:01N 37°47' W 122°17'0 0.2
2018-Feb-16 12:31N 37°47' W 122°17'0 0.1
2018-Feb-16 12:00N 37°47' W 122°17'0 0.1
2018-Feb-16 11:30N 37°47' W 122°17'0 0.0
2018-Feb-15 01:24N 37°47' W 122°17'2 4.5
2018-Feb-15 01:00N 37°48' W 122°20'3 6.8
2018-Feb-15 00:30N 37°46' W 122°23'0 0.1
2018-Feb-15 00:00N 37°46' W 122°23'1 1.7
2018-Feb-14 23:30N 37°46' W 122°22'3 5.8
2018-Feb-14 23:00N 37°48' W 122°19'1 2.9
2018-Feb-14 22:30N 37°47' W 122°17'  

Dump ship's entire track history